createdAt,value
2023-04-18T00:01:58.104Z,22.65
2023-04-18T00:04:28.965Z,23.55
2023-04-18T00:07:01.638Z,22.70
2023-04-18T00:09:33.085Z,20.27
2023-04-18T00:12:04.959Z,22.87
2023-04-18T00:14:38.074Z,24.07
2023-04-18T00:17:09.478Z,21.00
2023-04-18T00:19:41.837Z,24.70
2023-04-18T00:22:15.101Z,20.17
2023-04-18T00:24:45.559Z,22.67
2023-04-18T00:27:16.594Z,21.33
2023-04-18T00:29:47.529Z,23.00
2023-04-18T00:32:21.293Z,24.15
2023-04-18T00:34:51.780Z,22.77
2023-04-18T00:37:22.252Z,23.55
2023-04-18T00:39:53.937Z,21.60
2023-04-18T00:42:26.289Z,21.93
2023-04-18T00:44:56.970Z,22.35
2023-04-18T00:47:29.528Z,22.17
2023-04-18T00:50:02.509Z,21.17
2023-04-18T00:52:35.282Z,22.13
2023-04-18T00:55:09.322Z,26.63
2023-04-18T00:57:41.536Z,22.07
2023-04-18T01:00:13.162Z,22.07
2023-04-18T01:02:44.089Z,21.45
2023-04-18T01:05:15.139Z,21.75
2023-04-18T01:07:46.187Z,22.98
2023-04-18T01:10:17.014Z,20.53
2023-04-18T01:12:47.674Z,26.05
2023-04-18T01:15:18.196Z,22.50
2023-04-18T01:17:48.818Z,21.52
2023-04-18T01:20:25.237Z,19.20
2023-04-18T01:22:57.133Z,19.55
2023-04-18T01:25:27.737Z,23.30
2023-04-18T01:27:58.940Z,20.60
2023-04-18T01:30:30.808Z,21.27
2023-04-18T01:33:06.599Z,20.97
2023-04-18T01:35:37.257Z,21.65
2023-04-18T01:38:07.708Z,21.15
2023-04-18T01:40:39.230Z,20.13
2023-04-18T01:43:09.730Z,19.87
2023-04-18T01:45:43.056Z,18.95
2023-04-18T01:48:13.702Z,21.07
2023-04-18T01:50:44.603Z,21.48
2023-04-18T01:53:17.211Z,20.37
2023-04-18T01:55:51.990Z,20.30
2023-04-18T01:58:23.818Z,19.82
2023-04-18T02:00:57.764Z,19.93
2023-04-18T02:03:28.620Z,20.43
2023-04-18T02:05:59.523Z,20.13
2023-04-18T02:08:32.987Z,19.45
2023-04-18T02:11:04.166Z,22.25
2023-04-18T02:13:34.716Z,19.23
2023-04-18T02:16:06.896Z,20.25
2023-04-18T02:18:38.991Z,18.45
2023-04-18T02:21:11.190Z,18.52
2023-04-18T02:23:42.714Z,19.25
2023-04-18T02:26:13.352Z,16.07
2023-04-18T02:28:44.094Z,20.90
2023-04-18T02:31:15.930Z,19.50
2023-04-18T02:33:48.216Z,19.65
2023-04-18T02:36:18.862Z,18.20
2023-04-18T02:38:49.542Z,18.90
2023-04-18T02:41:21.857Z,19.27
2023-04-18T02:43:52.316Z,19.70
2023-04-18T02:46:24.676Z,20.27
2023-04-18T02:49:02.160Z,17.92
2023-04-18T02:51:33.049Z,19.63
2023-04-18T02:54:03.630Z,18.45
2023-04-18T02:56:37.308Z,17.57
2023-04-18T02:59:09.981Z,16.82
2023-04-18T03:01:42.134Z,18.50
2023-04-18T03:04:14.404Z,18.45
2023-04-18T03:06:48.352Z,18.67
2023-04-18T03:09:18.873Z,18.13
2023-04-18T03:11:49.629Z,19.98
2023-04-18T03:14:20.152Z,19.40
2023-04-18T03:16:54.592Z,16.10
2023-04-18T03:19:23.451Z,17.60
2023-04-18T03:21:55.611Z,18.35
2023-04-18T03:24:27.900Z,17.23
2023-04-18T03:27:00.189Z,17.75
2023-04-18T03:29:31.188Z,19.80
2023-04-18T03:32:02.499Z,19.25
2023-04-18T03:34:33.019Z,17.48
2023-04-18T03:37:05.112Z,18.25
2023-04-18T03:39:35.666Z,17.05
2023-04-18T03:42:06.552Z,17.70
2023-04-18T03:44:38.552Z,19.40
2023-04-18T03:47:09.382Z,17.13
2023-04-18T03:49:41.485Z,18.55
2023-04-18T03:52:11.980Z,17.60
2023-04-18T03:54:43.027Z,17.05
2023-04-18T03:57:14.699Z,17.40
2023-04-18T03:59:47.829Z,17.42
2023-04-18T04:02:18.256Z,19.10
2023-04-18T04:04:49.487Z,15.50
2023-04-18T04:07:20.041Z,18.95
2023-04-18T04:09:50.660Z,17.40
2023-04-18T04:12:21.232Z,19.83
2023-04-18T04:14:51.905Z,17.02
2023-04-18T04:17:22.506Z,16.67
2023-04-18T04:19:53.508Z,18.92
2023-04-18T04:22:24.066Z,17.40
2023-04-18T04:24:57.793Z,16.77
2023-04-18T04:27:29.992Z,21.55
2023-04-18T04:30:02.834Z,19.95
2023-04-18T04:32:33.717Z,17.83
2023-04-18T04:35:04.444Z,19.50
2023-04-18T04:37:35.079Z,19.37
2023-04-18T04:40:06.542Z,20.32
2023-04-18T04:42:40.482Z,19.60
2023-04-18T04:45:12.433Z,18.42
2023-04-18T04:47:43.000Z,20.30
2023-04-18T04:50:18.442Z,18.12
2023-04-18T04:52:50.414Z,16.90
2023-04-18T04:55:21.264Z,19.12
2023-04-18T04:57:51.917Z,18.15
2023-04-18T05:00:22.816Z,16.45
2023-04-18T05:02:54.934Z,19.70
2023-04-18T05:05:26.611Z,19.12
2023-04-18T05:07:57.243Z,18.93
2023-04-18T05:10:28.504Z,18.40
2023-04-18T05:12:59.001Z,19.85
2023-04-18T05:15:29.527Z,17.70
2023-04-18T05:18:00.172Z,14.63
2023-04-18T05:20:32.330Z,16.02
2023-04-18T05:23:04.096Z,15.93
2023-04-18T05:25:34.681Z,14.75
2023-04-18T05:28:05.285Z,13.75
2023-04-18T05:30:36.052Z,14.50
2023-04-18T05:33:08.086Z,14.87
2023-04-18T05:35:39.384Z,14.25
2023-04-18T05:38:10.451Z,14.47
2023-04-18T05:40:43.420Z,14.68
2023-04-18T05:43:16.966Z,13.70
2023-04-18T05:45:47.785Z,13.00
2023-04-18T05:48:21.658Z,13.93
2023-04-18T05:50:54.045Z,12.98
2023-04-18T05:53:26.457Z,12.45
2023-04-18T05:55:58.924Z,12.40
2023-04-18T05:58:29.619Z,12.80
2023-04-18T06:01:01.161Z,14.28
2023-04-18T06:03:32.349Z,12.68
2023-04-18T06:06:04.777Z,12.88
2023-04-18T06:08:38.563Z,12.63
2023-04-18T06:11:10.412Z,13.40
2023-04-18T06:13:43.199Z,15.53
2023-04-18T06:16:15.258Z,13.70
2023-04-18T06:18:46.330Z,14.95
2023-04-18T06:21:18.020Z,13.28
2023-04-18T06:23:50.357Z,14.40
2023-04-18T06:26:22.232Z,16.90
2023-04-18T06:28:56.148Z,16.02
2023-04-18T06:31:27.285Z,16.50
2023-04-18T06:33:57.771Z,16.55
2023-04-18T06:36:32.452Z,16.65
2023-04-18T06:39:04.312Z,15.63
2023-04-18T06:41:45.242Z,17.98
2023-04-18T06:44:15.598Z,15.95
2023-04-18T06:46:47.819Z,14.73
2023-04-18T06:49:18.372Z,14.40
2023-04-18T06:51:50.819Z,16.77
2023-04-18T06:54:21.386Z,12.68
2023-04-18T06:56:53.484Z,12.53
2023-04-18T06:59:25.778Z,15.38
2023-04-18T07:01:56.386Z,18.65
2023-04-18T07:04:27.005Z,16.07
2023-04-18T07:06:57.513Z,14.15
2023-04-18T07:09:28.558Z,12.63
2023-04-18T07:12:01.126Z,17.65
2023-04-18T07:14:33.563Z,15.13
2023-04-18T07:17:05.114Z,14.03
2023-04-18T07:19:36.517Z,16.82
2023-04-18T07:22:07.012Z,15.72
2023-04-18T07:24:39.359Z,12.50
2023-04-18T07:27:09.926Z,13.60
2023-04-18T07:29:41.055Z,14.70
2023-04-18T07:32:11.636Z,13.62
2023-04-18T07:34:42.723Z,13.43
2023-04-18T07:37:15.150Z,12.80
2023-04-18T07:39:48.799Z,16.17
2023-04-18T07:42:19.499Z,13.45
2023-04-18T07:44:50.399Z,13.75
2023-04-18T07:47:22.386Z,14.60
2023-04-18T07:49:53.195Z,14.58
2023-04-18T07:52:23.937Z,12.50
2023-04-18T07:54:55.825Z,13.20
2023-04-18T07:57:26.418Z,13.45
2023-04-18T07:59:56.963Z,14.70
2023-04-18T08:02:27.576Z,13.60
2023-04-18T08:05:00.905Z,16.62
2023-04-18T08:07:30.465Z,15.03
2023-04-18T08:10:01.701Z,15.85
2023-04-18T08:12:32.256Z,14.23
2023-04-18T08:15:06.596Z,14.07
2023-04-18T08:17:38.869Z,13.05
2023-04-18T08:20:15.259Z,15.13
2023-04-18T08:23:02.341Z,12.60
2023-04-18T08:25:22.432Z,14.28
2023-04-18T08:27:54.171Z,15.83
2023-04-18T08:30:27.339Z,12.95
2023-04-18T08:32:58.105Z,14.87
2023-04-18T08:35:30.026Z,14.85
2023-04-18T08:38:01.590Z,16.30
2023-04-18T08:40:33.300Z,14.90
2023-04-18T08:43:07.201Z,13.10
2023-04-18T08:45:42.154Z,12.93
2023-04-18T08:48:14.157Z,14.70
2023-04-18T08:50:48.323Z,16.90
2023-04-18T08:53:19.286Z,14.65
2023-04-18T08:55:57.856Z,13.55
2023-04-18T08:58:30.736Z,13.83
2023-04-18T09:01:03.309Z,15.25
2023-04-18T09:03:41.637Z,13.75
2023-04-18T09:06:16.422Z,14.95
2023-04-18T09:09:00.523Z,14.07
2023-04-18T09:11:32.397Z,13.48
2023-04-18T09:14:03.481Z,15.10
2023-04-18T09:16:47.918Z,13.85
2023-04-18T09:19:19.082Z,15.20
2023-04-18T09:21:53.816Z,13.05
2023-04-18T09:24:27.698Z,12.80
2023-04-18T09:27:00.231Z,13.08
2023-04-18T09:29:47.701Z,11.83
2023-04-18T09:32:27.227Z,12.37
2023-04-18T09:35:04.063Z,14.58
2023-04-18T09:37:34.169Z,11.80
2023-04-18T09:40:09.179Z,13.15
2023-04-18T09:42:39.829Z,14.23
2023-04-18T09:45:12.217Z,14.05
2023-04-18T09:47:42.772Z,12.33
2023-04-18T09:50:16.871Z,12.75
2023-04-18T09:52:50.812Z,12.53
2023-04-18T09:55:20.983Z,12.90
2023-04-18T09:57:54.069Z,12.85
2023-04-18T10:00:26.592Z,13.60
2023-04-18T10:03:03.315Z,14.70
2023-04-18T10:05:36.435Z,12.88
2023-04-18T10:08:09.261Z,14.03
2023-04-18T10:10:40.833Z,13.75
2023-04-18T10:13:14.727Z,15.08
2023-04-18T10:15:46.165Z,12.55
2023-04-18T10:18:17.390Z,14.85
2023-04-18T10:20:48.261Z,13.83
2023-04-18T10:23:36.691Z,12.93
2023-04-18T10:26:11.782Z,12.18
2023-04-18T10:28:57.445Z,15.55
2023-04-18T10:31:30.132Z,13.62
2023-04-18T10:36:34.700Z,12.20
2023-04-18T10:39:25.387Z,12.43
2023-04-18T10:41:56.112Z,11.55
2023-04-18T10:44:27.480Z,12.47
2023-04-18T10:47:03.967Z,13.13
2023-04-18T10:49:36.912Z,12.25
2023-04-18T10:52:07.521Z,15.40
2023-04-18T10:54:45.817Z,12.07
2023-04-18T10:57:17.557Z,13.40
2023-04-18T10:59:54.687Z,11.80
2023-04-18T11:02:29.363Z,11.43
2023-04-18T11:05:02.960Z,12.65
2023-04-18T11:07:35.293Z,11.48
2023-04-18T11:10:10.094Z,12.78
2023-04-18T11:12:42.792Z,14.70
2023-04-18T11:15:20.651Z,14.75
2023-04-18T11:18:00.757Z,13.35
2023-04-18T11:20:39.530Z,12.60
2023-04-18T11:23:23.187Z,11.83
2023-04-18T11:25:56.655Z,12.90
2023-04-18T11:28:28.544Z,12.25
2023-04-18T11:31:00.257Z,11.53
2023-04-18T11:33:32.866Z,15.28
2023-04-18T11:36:05.782Z,11.68
2023-04-18T11:38:38.038Z,12.13
2023-04-18T11:41:14.657Z,12.63
2023-04-18T11:43:46.664Z,10.82
2023-04-18T11:46:17.288Z,12.90
2023-04-18T11:48:49.540Z,12.35
2023-04-18T11:51:38.706Z,10.88
2023-04-18T11:54:29.102Z,12.55
2023-04-18T11:56:59.897Z,10.93
2023-04-18T11:59:32.021Z,11.60
2023-04-18T12:02:15.433Z,12.53
2023-04-18T12:04:53.556Z,12.07
2023-04-18T12:07:37.751Z,11.73
2023-04-18T12:10:11.648Z,12.68
2023-04-18T12:12:46.795Z,12.00
2023-04-18T12:15:18.577Z,12.98
2023-04-18T12:17:52.415Z,13.83
2023-04-18T12:20:25.131Z,12.78
2023-04-18T12:22:57.449Z,12.75
2023-04-18T12:25:28.038Z,14.83
2023-04-18T12:28:04.624Z,13.00
2023-04-18T12:30:37.736Z,14.23
2023-04-18T12:33:11.715Z,12.60
2023-04-18T12:35:44.417Z,12.43
2023-04-18T12:38:18.364Z,13.58
2023-04-18T12:40:50.531Z,13.32
2023-04-18T12:43:23.052Z,13.25
2023-04-18T12:45:56.606Z,17.37
2023-04-18T12:48:28.433Z,13.32
2023-04-18T12:50:59.960Z,13.68
2023-04-18T12:53:30.595Z,13.70
2023-04-18T12:56:02.445Z,14.53
2023-04-18T12:58:37.135Z,13.62
2023-04-18T13:01:10.722Z,15.18
2023-04-18T13:03:42.773Z,14.25
2023-04-18T13:06:14.968Z,14.65
2023-04-18T13:08:47.430Z,15.48
2023-04-18T13:11:18.010Z,14.03
2023-04-18T13:13:49.538Z,15.43
2023-04-18T13:16:22.435Z,15.28
2023-04-18T13:18:54.457Z,14.65
2023-04-18T13:21:27.764Z,15.45
2023-04-18T13:23:58.328Z,15.95
2023-04-18T13:26:30.399Z,15.30
2023-04-18T13:29:02.619Z,16.10
2023-04-18T13:31:34.714Z,16.35
2023-04-18T13:34:05.429Z,15.58
2023-04-18T13:36:37.433Z,15.70
2023-04-18T13:39:10.730Z,15.35
2023-04-18T13:41:41.267Z,15.70
2023-04-18T13:44:11.737Z,14.60
2023-04-18T13:46:42.963Z,15.03
2023-04-18T13:49:15.717Z,15.98
2023-04-18T13:51:46.525Z,15.80
2023-04-18T13:54:17.952Z,12.90
2023-04-18T13:56:48.433Z,13.65
2023-04-18T13:59:19.061Z,13.78
2023-04-18T14:01:49.731Z,13.83
2023-04-18T14:04:25.146Z,13.50
2023-04-18T14:06:58.400Z,12.50
2023-04-18T14:09:30.408Z,13.72
2023-04-18T14:12:05.948Z,12.53
2023-04-18T14:14:37.165Z,12.30
2023-04-18T14:17:07.794Z,12.37
2023-04-18T14:19:38.400Z,12.73
2023-04-18T14:22:08.894Z,12.35
2023-04-18T14:24:41.426Z,13.78
2023-04-18T14:27:12.460Z,11.93
2023-04-18T14:29:43.067Z,12.47
2023-04-18T14:32:14.844Z,12.25
2023-04-18T14:34:47.044Z,12.68
2023-04-18T14:37:17.821Z,11.60
2023-04-18T14:39:48.810Z,12.43
2023-04-18T14:42:19.434Z,11.20
2023-04-18T14:44:51.068Z,11.68
2023-04-18T14:47:23.998Z,11.43
2023-04-18T14:49:54.880Z,12.90
2023-04-18T14:52:26.527Z,10.72
2023-04-18T14:54:57.481Z,13.60
2023-04-18T14:57:31.228Z,10.53
2023-04-18T15:00:04.938Z,10.68
2023-04-18T15:02:35.709Z,11.85
2023-04-18T15:05:07.449Z,11.03
2023-04-18T15:07:38.060Z,10.90
2023-04-18T15:10:12.162Z,9.60
2023-04-18T15:12:42.964Z,9.55
2023-04-18T15:15:14.457Z,10.25
2023-04-18T15:17:44.946Z,9.35
2023-04-18T15:20:17.704Z,8.88
2023-04-18T15:22:48.208Z,9.70
2023-04-18T15:25:18.900Z,8.95
2023-04-18T15:27:52.337Z,11.05
2023-04-18T15:30:24.050Z,11.55
2023-04-18T15:32:54.733Z,8.93
2023-04-18T15:35:29.802Z,8.10
2023-04-18T15:38:00.625Z,8.03
2023-04-18T15:40:33.190Z,10.72
2023-04-18T15:43:06.051Z,8.33
2023-04-18T15:45:38.588Z,8.48
2023-04-18T15:48:09.205Z,8.90
2023-04-18T15:50:42.324Z,7.85
2023-04-18T15:53:12.765Z,8.55
2023-04-18T15:55:43.330Z,8.45
2023-04-18T15:58:14.110Z,7.50
2023-04-18T16:00:46.863Z,7.58
2023-04-18T16:03:18.230Z,7.80
2023-04-18T16:05:49.016Z,6.55
2023-04-18T16:08:19.521Z,5.90
2023-04-18T16:10:51.575Z,7.67
2023-04-18T16:13:22.112Z,6.25
2023-04-18T16:15:52.696Z,8.25
2023-04-18T16:18:23.247Z,7.20
2023-04-18T16:20:53.822Z,7.00
2023-04-18T16:23:26.471Z,7.28
2023-04-18T16:25:57.346Z,6.47
2023-04-18T16:28:29.519Z,6.70
2023-04-18T16:31:00.294Z,6.65
2023-04-18T16:33:31.069Z,7.72
2023-04-18T16:36:05.280Z,7.85
2023-04-18T16:38:35.830Z,9.45
2023-04-18T16:41:06.645Z,8.18
2023-04-18T16:43:38.876Z,5.85
2023-04-18T16:46:11.265Z,5.67
2023-04-18T16:48:42.017Z,6.40
2023-04-18T16:51:13.736Z,5.22
2023-04-18T16:53:45.742Z,5.67
2023-04-18T16:56:37.101Z,4.65
2023-04-18T16:59:10.739Z,4.87
2023-04-18T17:01:42.448Z,6.00
2023-04-18T17:04:14.754Z,5.22
2023-04-18T17:09:46.427Z,6.17
2023-04-18T17:12:18.164Z,5.72
2023-04-18T17:14:48.763Z,4.87
2023-04-18T17:17:21.158Z,5.47
2023-04-18T17:19:51.656Z,6.22
2023-04-18T17:22:23.449Z,5.67
2023-04-18T17:24:53.895Z,6.72
2023-04-18T17:27:24.530Z,6.83
2023-04-18T17:29:58.313Z,7.58
2023-04-18T17:32:32.009Z,6.95
2023-04-18T17:35:04.415Z,6.22
2023-04-18T17:37:38.663Z,7.78
2023-04-18T17:40:12.380Z,8.13
2023-04-18T17:42:44.477Z,6.78
2023-04-18T17:45:17.272Z,6.78
2023-04-18T17:47:49.474Z,5.53
2023-04-18T17:50:20.241Z,7.97
2023-04-18T17:52:52.404Z,6.92
2023-04-18T17:55:22.814Z,9.73
2023-04-18T17:57:53.364Z,10.70
2023-04-18T18:00:26.876Z,10.95
2023-04-18T18:02:57.710Z,11.33
2023-04-18T18:05:28.296Z,6.62
2023-04-18T18:08:00.998Z,8.08
2023-04-18T18:10:33.344Z,6.30
2023-04-18T18:13:03.939Z,8.00
2023-04-18T18:15:35.399Z,7.17
2023-04-18T18:18:13.729Z,8.85
2023-04-18T18:20:44.399Z,8.30
2023-04-18T18:23:18.314Z,7.95
2023-04-18T18:25:50.734Z,7.80
2023-04-18T18:28:21.821Z,6.83
2023-04-18T18:30:58.921Z,6.03
2023-04-18T18:33:29.515Z,7.65
2023-04-18T18:36:01.470Z,6.65
2023-04-18T18:38:31.870Z,6.28
2023-04-18T18:41:04.661Z,5.72
2023-04-18T18:43:35.359Z,6.78
2023-04-18T18:46:06.110Z,6.15
2023-04-18T18:48:38.242Z,5.83
2023-04-18T18:51:10.059Z,8.68
2023-04-18T18:53:40.703Z,5.90
2023-04-18T18:56:11.193Z,6.10
2023-04-18T18:58:43.801Z,6.12
2023-04-18T19:01:23.488Z,7.20
2023-04-18T19:03:55.325Z,7.08
2023-04-18T19:06:27.798Z,7.72
2023-04-18T19:08:58.608Z,7.57
2023-04-18T19:11:30.041Z,7.20
2023-04-18T19:14:01.362Z,7.60
2023-04-18T19:16:33.699Z,6.45
2023-04-18T19:19:06.481Z,7.55
2023-04-18T19:21:38.880Z,9.60
2023-04-18T19:24:11.825Z,6.00
2023-04-18T19:26:43.842Z,8.45
2023-04-18T19:29:15.845Z,9.63
2023-04-18T19:31:46.545Z,9.03
2023-04-18T19:34:22.776Z,7.28
2023-04-18T19:36:53.374Z,6.05
2023-04-18T19:39:25.967Z,7.20
2023-04-18T19:41:57.079Z,8.18
2023-04-18T19:44:27.610Z,7.58
2023-04-18T19:46:59.714Z,8.25
2023-04-18T19:49:30.674Z,7.28
2023-04-18T19:52:01.675Z,8.95
2023-04-18T19:54:36.405Z,7.47
2023-04-18T19:57:06.894Z,8.78
2023-04-18T19:59:37.695Z,7.87
2023-04-18T20:02:08.255Z,8.75
2023-04-18T20:04:40.532Z,10.32
2023-04-18T20:07:14.181Z,7.50
2023-04-18T20:09:44.865Z,8.40
2023-04-18T20:12:16.294Z,9.40
2023-04-18T20:14:47.185Z,10.20
2023-04-18T20:17:17.814Z,8.08
2023-04-18T20:19:50.010Z,7.35
2023-04-18T20:22:20.898Z,8.48
2023-04-18T20:24:53.856Z,8.70
2023-04-18T20:27:24.712Z,7.75
2023-04-18T20:29:57.235Z,7.28
2023-04-18T20:32:28.036Z,8.58
2023-04-18T20:34:58.685Z,8.10
2023-04-18T20:37:29.442Z,10.23
2023-04-18T20:40:03.063Z,9.63
2023-04-18T20:42:36.977Z,9.43
2023-04-18T20:45:09.993Z,11.80
2023-04-18T20:47:44.151Z,11.03
2023-04-18T20:50:18.458Z,8.70
2023-04-18T20:52:49.369Z,7.95
2023-04-18T20:55:20.197Z,8.20
2023-04-18T20:57:51.402Z,9.70
2023-04-18T21:00:21.965Z,8.40
2023-04-18T21:02:53.762Z,9.63
2023-04-18T21:05:26.607Z,9.33
2023-04-18T21:07:59.673Z,8.15
2023-04-18T21:10:32.728Z,9.93
2023-04-18T21:13:06.185Z,9.55
2023-04-18T21:15:38.106Z,9.55
2023-04-18T21:18:09.829Z,11.28
2023-04-18T21:20:40.966Z,8.90
2023-04-18T21:23:12.593Z,10.78
2023-04-18T21:25:43.217Z,8.58
2023-04-18T21:28:13.945Z,9.83
2023-04-18T21:30:44.852Z,10.68
2023-04-18T21:33:19.065Z,9.60
2023-04-18T21:35:51.482Z,9.40
2023-04-18T21:38:23.929Z,9.88
2023-04-18T21:40:54.567Z,10.05
2023-04-18T21:43:27.704Z,9.85
2023-04-18T21:45:58.397Z,10.70
2023-04-18T21:48:29.219Z,11.55
2023-04-18T21:51:00.259Z,11.40
2023-04-18T21:53:31.830Z,10.68
2023-04-18T21:56:04.726Z,11.60
2023-04-18T21:58:36.266Z,10.18
2023-04-18T22:01:06.917Z,11.00
2023-04-18T22:03:37.962Z,10.05
2023-04-18T22:06:09.771Z,11.27
2023-04-18T22:08:42.085Z,11.43
2023-04-18T22:11:14.189Z,10.00
2023-04-18T22:13:46.070Z,10.20
2023-04-18T22:16:18.752Z,10.20
2023-04-18T22:18:49.476Z,9.98
2023-04-18T22:21:23.331Z,8.80
2023-04-18T22:23:53.844Z,13.60
2023-04-18T22:26:27.361Z,9.60
2023-04-18T22:28:58.358Z,11.97
2023-04-18T22:31:30.657Z,10.43
2023-04-18T22:34:06.080Z,13.48
2023-04-18T22:36:45.510Z,10.18
2023-04-18T22:39:16.020Z,9.90
2023-04-18T22:41:49.573Z,12.53
2023-04-18T22:44:20.089Z,7.08
2023-04-18T22:46:52.267Z,9.50
2023-04-18T22:49:24.514Z,10.60
2023-04-18T22:51:55.275Z,9.83
2023-04-18T22:54:27.129Z,8.30
2023-04-18T22:57:00.343Z,7.80
2023-04-18T22:59:31.932Z,8.85
2023-04-18T23:02:06.524Z,8.38
2023-04-18T23:04:37.034Z,8.07
2023-04-18T23:07:11.491Z,7.37
2023-04-18T23:09:41.883Z,7.97
2023-04-18T23:12:12.469Z,7.00
2023-04-18T23:14:46.074Z,7.75
2023-04-18T23:17:19.421Z,7.17
2023-04-18T23:19:49.899Z,7.72
2023-04-18T23:22:24.141Z,7.90
2023-04-18T23:24:56.383Z,7.30
2023-04-18T23:27:26.984Z,8.73
2023-04-18T23:29:57.589Z,7.17
2023-04-18T23:32:28.426Z,6.00
2023-04-18T23:35:00.635Z,7.43
2023-04-18T23:37:32.012Z,7.97
2023-04-18T23:40:05.393Z,5.53
2023-04-18T23:42:37.155Z,5.65
2023-04-18T23:45:08.523Z,6.25
2023-04-18T23:47:41.073Z,6.65
2023-04-18T23:50:12.453Z,7.62
2023-04-18T23:52:44.139Z,5.20
2023-04-18T23:55:21.640Z,6.13
2023-04-18T23:57:52.255Z,7.15
